sensor_id;sensor_type;location;lat;lon;timestamp;P1;durP1;ratioP1;P2;durP2;ratioP2
33138;SDS011;19501;50.948;5.316;2024-01-25T00:01:14;55.15;;;9.88;;
33138;SDS011;19501;50.948;5.316;2024-01-25T00:03:40;58.38;;;8.95;;
33138;SDS011;19501;50.948;5.316;2024-01-25T00:06:06;74.28;;;12.85;;
33138;SDS011;19501;50.948;5.316;2024-01-25T00:08:32;44.55;;;8.43;;
33138;SDS011;19501;50.948;5.316;2024-01-25T00:10:59;59.97;;;9.43;;
33138;SDS011;19501;50.948;5.316;2024-01-25T00:13:24;63.63;;;10.25;;
33138;SDS011;19501;50.948;5.316;2024-01-25T00:15:50;51.70;;;9.55;;
33138;SDS011;19501;50.948;5.316;2024-01-25T00:18:16;65.93;;;9.40;;
33138;SDS011;19501;50.948;5.316;2024-01-25T00:20:42;63.20;;;9.95;;
33138;SDS011;19501;50.948;5.316;2024-01-25T00:23:08;60.15;;;9.75;;
33138;SDS011;19501;50.948;5.316;2024-01-25T00:25:33;47.15;;;8.45;;
33138;SDS011;19501;50.948;5.316;2024-01-25T00:27:59;54.38;;;9.55;;
33138;SDS011;19501;50.948;5.316;2024-01-25T00:30:27;63.20;;;11.23;;
33138;SDS011;19501;50.948;5.316;2024-01-25T00:32:52;53.72;;;8.95;;
33138;SDS011;19501;50.948;5.316;2024-01-25T00:35:18;52.97;;;8.88;;
33138;SDS011;19501;50.948;5.316;2024-01-25T00:37:44;47.63;;;8.43;;
33138;SDS011;19501;50.948;5.316;2024-01-25T00:40:10;58.03;;;10.43;;
33138;SDS011;19501;50.948;5.316;2024-01-25T00:42:42;49.85;;;8.40;;
33138;SDS011;19501;50.948;5.316;2024-01-25T00:45:09;48.55;;;8.07;;
33138;SDS011;19501;50.948;5.316;2024-01-25T00:47:35;62.90;;;10.15;;
33138;SDS011;19501;50.948;5.316;2024-01-25T00:50:02;57.05;;;9.63;;
33138;SDS011;19501;50.948;5.316;2024-01-25T00:52:29;57.60;;;9.13;;
33138;SDS011;19501;50.948;5.316;2024-01-25T00:54:55;58.92;;;8.93;;
33138;SDS011;19501;50.948;5.316;2024-01-25T00:57:21;54.92;;;9.45;;
33138;SDS011;19501;50.948;5.316;2024-01-25T00:59:47;60.25;;;9.48;;
33138;SDS011;19501;50.948;5.316;2024-01-25T01:02:15;58.80;;;8.60;;
33138;SDS011;19501;50.948;5.316;2024-01-25T01:04:41;53.90;;;8.98;;
33138;SDS011;19501;50.948;5.316;2024-01-25T01:07:07;50.88;;;10.25;;
33138;SDS011;19501;50.948;5.316;2024-01-25T01:09:35;55.25;;;8.73;;
33138;SDS011;19501;50.948;5.316;2024-01-25T01:12:00;62.55;;;11.32;;
33138;SDS011;19501;50.948;5.316;2024-01-25T01:14:26;55.70;;;9.73;;
33138;SDS011;19501;50.948;5.316;2024-01-25T01:16:51;58.85;;;9.45;;
33138;SDS011;19501;50.948;5.316;2024-01-25T01:19:17;58.72;;;9.45;;
33138;SDS011;19501;50.948;5.316;2024-01-25T01:21:43;61.92;;;9.73;;
33138;SDS011;19501;50.948;5.316;2024-01-25T01:24:12;55.80;;;9.07;;
33138;SDS011;19501;50.948;5.316;2024-01-25T01:26:38;53.22;;;9.68;;
33138;SDS011;19501;50.948;5.316;2024-01-25T01:29:04;60.38;;;9.05;;
33138;SDS011;19501;50.948;5.316;2024-01-25T01:31:30;48.63;;;8.60;;
33138;SDS011;19501;50.948;5.316;2024-01-25T01:33:56;49.63;;;8.90;;
33138;SDS011;19501;50.948;5.316;2024-01-25T01:36:23;63.88;;;8.70;;
33138;SDS011;19501;50.948;5.316;2024-01-25T01:38:49;48.10;;;8.27;;
33138;SDS011;19501;50.948;5.316;2024-01-25T01:41:15;49.85;;;10.52;;
33138;SDS011;19501;50.948;5.316;2024-01-25T01:43:40;45.35;;;9.23;;
33138;SDS011;19501;50.948;5.316;2024-01-25T01:46:12;46.53;;;9.18;;
33138;SDS011;19501;50.948;5.316;2024-01-25T01:49:08;54.00;;;9.38;;
33138;SDS011;19501;50.948;5.316;2024-01-25T01:51:39;52.40;;;9.13;;
33138;SDS011;19501;50.948;5.316;2024-01-25T01:54:06;59.35;;;9.55;;
33138;SDS011;19501;50.948;5.316;2024-01-25T01:56:32;49.95;;;9.13;;
33138;SDS011;19501;50.948;5.316;2024-01-25T01:59:05;60.25;;;8.35;;
33138;SDS011;19501;50.948;5.316;2024-01-25T02:01:34;51.33;;;8.52;;
33138;SDS011;19501;50.948;5.316;2024-01-25T02:03:59;51.35;;;8.70;;
33138;SDS011;19501;50.948;5.316;2024-01-25T02:06:25;47.13;;;9.35;;
33138;SDS011;19501;50.948;5.316;2024-01-25T02:08:52;53.63;;;8.07;;
33138;SDS011;19501;50.948;5.316;2024-01-25T02:11:18;52.95;;;9.10;;
33138;SDS011;19501;50.948;5.316;2024-01-25T02:13:45;47.67;;;8.93;;
33138;SDS011;19501;50.948;5.316;2024-01-25T02:16:13;53.58;;;9.00;;
33138;SDS011;19501;50.948;5.316;2024-01-25T02:18:40;72.35;;;9.93;;
33138;SDS011;19501;50.948;5.316;2024-01-25T02:21:06;56.85;;;7.88;;
33138;SDS011;19501;50.948;5.316;2024-01-25T02:23:32;51.55;;;8.52;;
33138;SDS011;19501;50.948;5.316;2024-01-25T02:25:58;54.78;;;8.68;;
33138;SDS011;19501;50.948;5.316;2024-01-25T02:28:23;55.35;;;8.85;;
33138;SDS011;19501;50.948;5.316;2024-01-25T02:30:49;61.95;;;9.57;;
33138;SDS011;19501;50.948;5.316;2024-01-25T02:33:15;64.65;;;9.45;;
33138;SDS011;19501;50.948;5.316;2024-01-25T02:35:40;48.60;;;8.40;;
33138;SDS011;19501;50.948;5.316;2024-01-25T02:38:06;42.83;;;8.60;;
33138;SDS011;19501;50.948;5.316;2024-01-25T02:40:32;52.95;;;9.32;;
33138;SDS011;19501;50.948;5.316;2024-01-25T02:42:57;54.42;;;8.85;;
33138;SDS011;19501;50.948;5.316;2024-01-25T02:45:23;57.78;;;8.68;;
33138;SDS011;19501;50.948;5.316;2024-01-25T02:47:51;52.00;;;8.77;;
33138;SDS011;19501;50.948;5.316;2024-01-25T02:50:17;53.97;;;8.38;;
33138;SDS011;19501;50.948;5.316;2024-01-25T02:52:42;69.20;;;9.68;;
33138;SDS011;19501;50.948;5.316;2024-01-25T02:55:08;58.03;;;9.13;;
33138;SDS011;19501;50.948;5.316;2024-01-25T02:57:34;55.13;;;8.23;;
33138;SDS011;19501;50.948;5.316;2024-01-25T03:00:02;55.15;;;9.45;;
33138;SDS011;19501;50.948;5.316;2024-01-25T03:02:29;64.90;;;9.50;;
33138;SDS011;19501;50.948;5.316;2024-01-25T03:04:55;43.97;;;7.97;;
33138;SDS011;19501;50.948;5.316;2024-01-25T03:07:20;55.92;;;9.15;;
33138;SDS011;19501;50.948;5.316;2024-01-25T03:09:46;53.92;;;8.55;;
33138;SDS011;19501;50.948;5.316;2024-01-25T03:12:12;44.33;;;7.97;;
33138;SDS011;19501;50.948;5.316;2024-01-25T03:14:37;57.15;;;9.15;;
33138;SDS011;19501;50.948;5.316;2024-01-25T03:17:03;53.13;;;7.35;;
33138;SDS011;19501;50.948;5.316;2024-01-25T03:19:28;48.10;;;8.55;;
33138;SDS011;19501;50.948;5.316;2024-01-25T03:21:54;43.85;;;7.13;;
33138;SDS011;19501;50.948;5.316;2024-01-25T03:24:20;39.58;;;7.30;;
33138;SDS011;19501;50.948;5.316;2024-01-25T03:26:46;39.70;;;7.05;;
33138;SDS011;19501;50.948;5.316;2024-01-25T03:29:13;43.08;;;8.02;;
33138;SDS011;19501;50.948;5.316;2024-01-25T03:31:39;52.38;;;7.32;;
33138;SDS011;19501;50.948;5.316;2024-01-25T03:34:04;40.28;;;7.57;;
33138;SDS011;19501;50.948;5.316;2024-01-25T03:36:30;35.33;;;5.07;;
33138;SDS011;19501;50.948;5.316;2024-01-25T03:38:56;44.35;;;8.30;;
33138;SDS011;19501;50.948;5.316;2024-01-25T03:41:22;30.17;;;8.48;;
33138;SDS011;19501;50.948;5.316;2024-01-25T03:43:50;34.65;;;7.60;;
33138;SDS011;19501;50.948;5.316;2024-01-25T03:46:16;44.45;;;7.63;;
33138;SDS011;19501;50.948;5.316;2024-01-25T03:48:42;42.85;;;7.28;;
33138;SDS011;19501;50.948;5.316;2024-01-25T03:51:10;46.50;;;7.78;;
33138;SDS011;19501;50.948;5.316;2024-01-25T03:53:36;45.35;;;6.60;;
33138;SDS011;19501;50.948;5.316;2024-01-25T03:56:01;40.38;;;7.57;;
33138;SDS011;19501;50.948;5.316;2024-01-25T03:58:28;34.67;;;6.80;;
33138;SDS011;19501;50.948;5.316;2024-01-25T04:00:54;35.83;;;6.65;;
33138;SDS011;19501;50.948;5.316;2024-01-25T04:03:19;36.63;;;5.78;;
33138;SDS011;19501;50.948;5.316;2024-01-25T04:05:45;44.70;;;6.80;;
33138;SDS011;19501;50.948;5.316;2024-01-25T04:08:10;46.55;;;8.00;;
33138;SDS011;19501;50.948;5.316;2024-01-25T04:10:36;32.22;;;6.38;;
33138;SDS011;19501;50.948;5.316;2024-01-25T04:13:02;52.85;;;9.13;;
33138;SDS011;19501;50.948;5.316;2024-01-25T04:15:31;54.28;;;8.45;;
33138;SDS011;19501;50.948;5.316;2024-01-25T04:17:57;34.97;;;6.13;;
33138;SDS011;19501;50.948;5.316;2024-01-25T04:20:22;43.05;;;7.32;;
33138;SDS011;19501;50.948;5.316;2024-01-25T04:22:48;48.88;;;8.40;;
33138;SDS011;19501;50.948;5.316;2024-01-25T04:25:14;50.83;;;8.65;;
33138;SDS011;19501;50.948;5.316;2024-01-25T04:27:40;47.53;;;8.10;;
33138;SDS011;19501;50.948;5.316;2024-01-25T04:30:06;44.80;;;8.30;;
33138;SDS011;19501;50.948;5.316;2024-01-25T04:32:32;43.92;;;8.45;;
33138;SDS011;19501;50.948;5.316;2024-01-25T04:34:58;41.63;;;7.30;;
33138;SDS011;19501;50.948;5.316;2024-01-25T04:37:24;38.38;;;7.93;;
33138;SDS011;19501;50.948;5.316;2024-01-25T04:39:50;35.08;;;7.25;;
33138;SDS011;19501;50.948;5.316;2024-01-25T04:42:15;33.13;;;5.85;;
33138;SDS011;19501;50.948;5.316;2024-01-25T04:44:41;38.53;;;6.82;;
33138;SDS011;19501;50.948;5.316;2024-01-25T04:47:06;42.53;;;7.57;;
33138;SDS011;19501;50.948;5.316;2024-01-25T04:49:33;38.03;;;6.78;;
33138;SDS011;19501;50.948;5.316;2024-01-25T04:51:58;43.10;;;7.82;;
33138;SDS011;19501;50.948;5.316;2024-01-25T04:54:24;49.70;;;8.18;;
33138;SDS011;19501;50.948;5.316;2024-01-25T04:56:49;59.95;;;8.68;;
33138;SDS011;19501;50.948;5.316;2024-01-25T04:59:15;56.42;;;8.13;;
33138;SDS011;19501;50.948;5.316;2024-01-25T05:01:41;45.97;;;8.73;;
33138;SDS011;19501;50.948;5.316;2024-01-25T05:04:06;52.53;;;8.40;;
33138;SDS011;19501;50.948;5.316;2024-01-25T05:06:32;56.72;;;8.18;;
33138;SDS011;19501;50.948;5.316;2024-01-25T05:08:57;45.45;;;8.43;;
33138;SDS011;19501;50.948;5.316;2024-01-25T05:11:23;54.92;;;9.82;;
33138;SDS011;19501;50.948;5.316;2024-01-25T05:13:48;51.65;;;9.25;;
33138;SDS011;19501;50.948;5.316;2024-01-25T05:16:14;47.58;;;8.00;;
33138;SDS011;19501;50.948;5.316;2024-01-25T05:18:40;52.13;;;9.27;;
33138;SDS011;19501;50.948;5.316;2024-01-25T05:21:05;60.92;;;9.10;;
33138;SDS011;19501;50.948;5.316;2024-01-25T05:23:31;43.45;;;7.65;;
33138;SDS011;19501;50.948;5.316;2024-01-25T05:25:57;56.55;;;8.52;;
33138;SDS011;19501;50.948;5.316;2024-01-25T05:28:22;59.15;;;8.02;;
33138;SDS011;19501;50.948;5.316;2024-01-25T05:30:49;55.28;;;8.57;;
33138;SDS011;19501;50.948;5.316;2024-01-25T05:33:15;45.88;;;7.60;;
33138;SDS011;19501;50.948;5.316;2024-01-25T05:35:41;44.28;;;7.38;;
33138;SDS011;19501;50.948;5.316;2024-01-25T05:38:06;45.90;;;7.45;;
33138;SDS011;19501;50.948;5.316;2024-01-25T05:40:32;46.53;;;7.63;;
33138;SDS011;19501;50.948;5.316;2024-01-25T05:42:58;62.40;;;8.77;;
33138;SDS011;19501;50.948;5.316;2024-01-25T05:45:24;51.25;;;8.43;;
33138;SDS011;19501;50.948;5.316;2024-01-25T05:47:50;52.88;;;9.13;;
33138;SDS011;19501;50.948;5.316;2024-01-25T05:50:15;44.53;;;8.07;;
33138;SDS011;19501;50.948;5.316;2024-01-25T05:52:41;39.70;;;8.05;;
33138;SDS011;19501;50.948;5.316;2024-01-25T05:55:07;51.70;;;9.35;;
33138;SDS011;19501;50.948;5.316;2024-01-25T05:57:36;64.63;;;9.48;;
33138;SDS011;19501;50.948;5.316;2024-01-25T06:00:02;48.03;;;8.20;;
33138;SDS011;19501;50.948;5.316;2024-01-25T06:02:33;50.88;;;8.35;;
33138;SDS011;19501;50.948;5.316;2024-01-25T06:04:59;44.78;;;7.70;;
33138;SDS011;19501;50.948;5.316;2024-01-25T06:07:28;51.53;;;8.55;;
33138;SDS011;19501;50.948;5.316;2024-01-25T06:09:53;57.83;;;8.32;;
33138;SDS011;19501;50.948;5.316;2024-01-25T06:12:19;47.50;;;8.27;;
33138;SDS011;19501;50.948;5.316;2024-01-25T06:14:45;46.17;;;7.93;;
33138;SDS011;19501;50.948;5.316;2024-01-25T06:17:10;39.33;;;7.72;;
33138;SDS011;19501;50.948;5.316;2024-01-25T06:19:36;45.03;;;8.45;;
33138;SDS011;19501;50.948;5.316;2024-01-25T06:22:02;40.70;;;7.30;;
33138;SDS011;19501;50.948;5.316;2024-01-25T06:24:28;43.47;;;8.02;;
33138;SDS011;19501;50.948;5.316;2024-01-25T06:26:56;48.58;;;8.35;;
33138;SDS011;19501;50.948;5.316;2024-01-25T06:29:22;44.13;;;8.68;;
33138;SDS011;19501;50.948;5.316;2024-01-25T06:31:47;55.42;;;9.77;;
33138;SDS011;19501;50.948;5.316;2024-01-25T06:34:13;47.08;;;8.88;;
33138;SDS011;19501;50.948;5.316;2024-01-25T06:36:39;54.63;;;8.70;;
33138;SDS011;19501;50.948;5.316;2024-01-25T06:39:04;42.72;;;7.30;;
33138;SDS011;19501;50.948;5.316;2024-01-25T06:41:30;45.20;;;8.40;;
33138;SDS011;19501;50.948;5.316;2024-01-25T06:43:56;50.70;;;9.90;;
33138;SDS011;19501;50.948;5.316;2024-01-25T06:46:22;54.65;;;7.78;;
33138;SDS011;19501;50.948;5.316;2024-01-25T06:48:48;62.97;;;10.82;;
33138;SDS011;19501;50.948;5.316;2024-01-25T06:51:15;58.05;;;9.07;;
33138;SDS011;19501;50.948;5.316;2024-01-25T06:53:41;56.90;;;9.35;;
33138;SDS011;19501;50.948;5.316;2024-01-25T06:56:06;46.90;;;9.10;;
33138;SDS011;19501;50.948;5.316;2024-01-25T06:58:32;50.47;;;8.45;;
33138;SDS011;19501;50.948;5.316;2024-01-25T07:00:58;59.97;;;8.95;;
33138;SDS011;19501;50.948;5.316;2024-01-25T07:03:24;57.92;;;9.52;;
33138;SDS011;19501;50.948;5.316;2024-01-25T07:05:49;54.28;;;9.32;;
33138;SDS011;19501;50.948;5.316;2024-01-25T07:08:15;56.55;;;8.93;;
33138;SDS011;19501;50.948;5.316;2024-01-25T07:10:41;49.33;;;8.88;;
33138;SDS011;19501;50.948;5.316;2024-01-25T07:13:07;51.75;;;9.00;;
33138;SDS011;19501;50.948;5.316;2024-01-25T07:15:33;45.25;;;8.80;;
33138;SDS011;19501;50.948;5.316;2024-01-25T07:17:59;48.30;;;9.48;;
33138;SDS011;19501;50.948;5.316;2024-01-25T07:20:24;47.60;;;8.57;;
33138;SDS011;19501;50.948;5.316;2024-01-25T07:22:50;53.42;;;8.23;;
33138;SDS011;19501;50.948;5.316;2024-01-25T07:25:18;49.63;;;10.10;;
33138;SDS011;19501;50.948;5.316;2024-01-25T07:27:44;56.35;;;9.02;;
33138;SDS011;19501;50.948;5.316;2024-01-25T07:30:10;56.50;;;10.20;;
33138;SDS011;19501;50.948;5.316;2024-01-25T07:32:37;66.45;;;10.82;;
33138;SDS011;19501;50.948;5.316;2024-01-25T07:35:04;54.55;;;9.00;;
33138;SDS011;19501;50.948;5.316;2024-01-25T07:37:30;57.65;;;10.00;;
33138;SDS011;19501;50.948;5.316;2024-01-25T07:39:55;50.53;;;10.05;;
33138;SDS011;19501;50.948;5.316;2024-01-25T07:42:21;61.08;;;10.18;;
33138;SDS011;19501;50.948;5.316;2024-01-25T07:44:47;59.22;;;10.30;;
33138;SDS011;19501;50.948;5.316;2024-01-25T07:47:13;61.13;;;10.38;;
33138;SDS011;19501;50.948;5.316;2024-01-25T07:49:40;49.38;;;9.00;;
33138;SDS011;19501;50.948;5.316;2024-01-25T07:52:06;51.97;;;9.98;;
33138;SDS011;19501;50.948;5.316;2024-01-25T07:54:31;58.28;;;10.07;;
33138;SDS011;19501;50.948;5.316;2024-01-25T07:56:57;46.53;;;9.60;;
33138;SDS011;19501;50.948;5.316;2024-01-25T07:59:23;47.67;;;9.10;;
33138;SDS011;19501;50.948;5.316;2024-01-25T08:01:48;47.53;;;9.02;;
33138;SDS011;19501;50.948;5.316;2024-01-25T08:04:14;45.38;;;8.85;;
33138;SDS011;19501;50.948;5.316;2024-01-25T08:06:39;50.08;;;9.13;;
33138;SDS011;19501;50.948;5.316;2024-01-25T08:09:05;53.35;;;9.75;;
33138;SDS011;19501;50.948;5.316;2024-01-25T08:11:31;56.97;;;10.02;;
33138;SDS011;19501;50.948;5.316;2024-01-25T08:13:56;49.42;;;9.70;;
33138;SDS011;19501;50.948;5.316;2024-01-25T08:16:22;46.85;;;9.70;;
33138;SDS011;19501;50.948;5.316;2024-01-25T08:18:48;43.17;;;9.25;;
33138;SDS011;19501;50.948;5.316;2024-01-25T08:21:14;52.97;;;9.95;;
33138;SDS011;19501;50.948;5.316;2024-01-25T08:23:41;44.25;;;9.88;;
33138;SDS011;19501;50.948;5.316;2024-01-25T08:26:07;50.88;;;10.32;;
33138;SDS011;19501;50.948;5.316;2024-01-25T08:28:38;56.75;;;11.25;;
33138;SDS011;19501;50.948;5.316;2024-01-25T08:31:05;48.30;;;9.77;;
33138;SDS011;19501;50.948;5.316;2024-01-25T08:33:30;50.78;;;10.00;;
33138;SDS011;19501;50.948;5.316;2024-01-25T08:35:56;46.92;;;9.98;;
33138;SDS011;19501;50.948;5.316;2024-01-25T08:38:22;55.42;;;10.02;;
33138;SDS011;19501;50.948;5.316;2024-01-25T08:40:48;41.40;;;9.82;;
33138;SDS011;19501;50.948;5.316;2024-01-25T08:43:13;51.63;;;10.25;;
33138;SDS011;19501;50.948;5.316;2024-01-25T08:45:39;56.88;;;10.90;;
33138;SDS011;19501;50.948;5.316;2024-01-25T08:48:05;58.72;;;12.45;;
33138;SDS011;19501;50.948;5.316;2024-01-25T08:50:31;57.25;;;13.10;;
33138;SDS011;19501;50.948;5.316;2024-01-25T08:52:58;61.53;;;14.13;;
33138;SDS011;19501;50.948;5.316;2024-01-25T08:55:24;53.58;;;12.80;;
33138;SDS011;19501;50.948;5.316;2024-01-25T08:57:50;58.63;;;14.85;;
33138;SDS011;19501;50.948;5.316;2024-01-25T09:00:16;63.42;;;14.88;;
33138;SDS011;19501;50.948;5.316;2024-01-25T09:02:43;59.50;;;15.48;;
33138;SDS011;19501;50.948;5.316;2024-01-25T09:05:08;60.45;;;16.02;;
33138;SDS011;19501;50.948;5.316;2024-01-25T09:07:34;59.28;;;15.60;;
33138;SDS011;19501;50.948;5.316;2024-01-25T09:10:00;64.25;;;16.98;;
33138;SDS011;19501;50.948;5.316;2024-01-25T09:12:26;53.75;;;16.88;;
33138;SDS011;19501;50.948;5.316;2024-01-25T09:14:52;66.68;;;17.02;;
33138;SDS011;19501;50.948;5.316;2024-01-25T09:17:17;60.17;;;16.85;;
33138;SDS011;19501;50.948;5.316;2024-01-25T09:19:50;48.42;;;16.98;;
33138;SDS011;19501;50.948;5.316;2024-01-25T09:22:16;57.60;;;18.90;;
33138;SDS011;19501;50.948;5.316;2024-01-25T09:24:44;78.60;;;18.77;;
33138;SDS011;19501;50.948;5.316;2024-01-25T09:27:15;59.22;;;18.20;;
33138;SDS011;19501;50.948;5.316;2024-01-25T09:29:41;54.00;;;16.48;;
33138;SDS011;19501;50.948;5.316;2024-01-25T09:32:08;59.80;;;16.88;;
33138;SDS011;19501;50.948;5.316;2024-01-25T09:34:34;62.67;;;16.60;;
33138;SDS011;19501;50.948;5.316;2024-01-25T09:37:01;57.10;;;16.85;;
33138;SDS011;19501;50.948;5.316;2024-01-25T09:39:27;66.43;;;18.60;;
33138;SDS011;19501;50.948;5.316;2024-01-25T09:41:53;60.92;;;17.35;;
33138;SDS011;19501;50.948;5.316;2024-01-25T09:44:21;59.80;;;19.00;;
33138;SDS011;19501;50.948;5.316;2024-01-25T09:46:47;54.97;;;17.45;;
33138;SDS011;19501;50.948;5.316;2024-01-25T09:49:13;60.85;;;18.75;;
33138;SDS011;19501;50.948;5.316;2024-01-25T09:51:40;55.95;;;17.38;;
33138;SDS011;19501;50.948;5.316;2024-01-25T09:54:06;61.47;;;18.80;;
33138;SDS011;19501;50.948;5.316;2024-01-25T09:56:33;62.08;;;19.77;;
33138;SDS011;19501;50.948;5.316;2024-01-25T09:59:02;71.53;;;19.73;;
33138;SDS011;19501;50.948;5.316;2024-01-25T10:01:29;66.60;;;19.35;;
33138;SDS011;19501;50.948;5.316;2024-01-25T10:03:55;64.85;;;20.88;;
33138;SDS011;19501;50.948;5.316;2024-01-25T10:06:21;66.07;;;21.30;;
33138;SDS011;19501;50.948;5.316;2024-01-25T10:08:47;69.28;;;20.98;;
33138;SDS011;19501;50.948;5.316;2024-01-25T10:11:14;63.60;;;20.17;;
33138;SDS011;19501;50.948;5.316;2024-01-25T10:13:46;63.92;;;21.13;;
33138;SDS011;19501;50.948;5.316;2024-01-25T10:16:13;88.50;;;23.58;;
33138;SDS011;19501;50.948;5.316;2024-01-25T10:18:43;75.03;;;22.42;;
33138;SDS011;19501;50.948;5.316;2024-01-25T10:21:12;64.63;;;22.15;;
33138;SDS011;19501;50.948;5.316;2024-01-25T10:23:38;75.97;;;23.08;;
33138;SDS011;19501;50.948;5.316;2024-01-25T10:26:05;61.63;;;20.25;;
33138;SDS011;19501;50.948;5.316;2024-01-25T10:28:33;69.90;;;20.58;;
33138;SDS011;19501;50.948;5.316;2024-01-25T10:31:00;65.35;;;19.58;;
33138;SDS011;19501;50.948;5.316;2024-01-25T10:33:27;70.78;;;21.15;;
33138;SDS011;19501;50.948;5.316;2024-01-25T10:35:56;63.75;;;18.13;;
33138;SDS011;19501;50.948;5.316;2024-01-25T10:38:28;70.60;;;20.58;;
33138;SDS011;19501;50.948;5.316;2024-01-25T10:40:55;56.28;;;18.23;;
33138;SDS011;19501;50.948;5.316;2024-01-25T10:43:22;63.78;;;20.48;;
33138;SDS011;19501;50.948;5.316;2024-01-25T10:45:47;66.32;;;19.92;;
33138;SDS011;19501;50.948;5.316;2024-01-25T10:48:13;68.28;;;20.23;;
33138;SDS011;19501;50.948;5.316;2024-01-25T10:50:39;69.13;;;18.88;;
33138;SDS011;19501;50.948;5.316;2024-01-25T10:53:05;63.78;;;19.83;;
33138;SDS011;19501;50.948;5.316;2024-01-25T10:55:34;69.30;;;19.38;;
33138;SDS011;19501;50.948;5.316;2024-01-25T10:58:00;61.67;;;19.42;;
33138;SDS011;19501;50.948;5.316;2024-01-25T11:00:25;62.75;;;19.88;;
33138;SDS011;19501;50.948;5.316;2024-01-25T11:02:51;62.63;;;19.13;;
33138;SDS011;19501;50.948;5.316;2024-01-25T11:05:17;64.05;;;19.42;;
33138;SDS011;19501;50.948;5.316;2024-01-25T11:07:45;66.60;;;19.63;;
33138;SDS011;19501;50.948;5.316;2024-01-25T11:10:19;73.53;;;21.73;;
33138;SDS011;19501;50.948;5.316;2024-01-25T11:12:59;62.65;;;18.75;;
33138;SDS011;19501;50.948;5.316;2024-01-25T11:15:35;58.67;;;19.13;;
33138;SDS011;19501;50.948;5.316;2024-01-25T11:18:12;62.42;;;18.98;;
33138;SDS011;19501;50.948;5.316;2024-01-25T11:20:38;60.40;;;19.70;;
33138;SDS011;19501;50.948;5.316;2024-01-25T11:23:05;59.38;;;17.02;;
33138;SDS011;19501;50.948;5.316;2024-01-25T11:25:35;64.55;;;19.20;;
33138;SDS011;19501;50.948;5.316;2024-01-25T11:28:02;66.72;;;17.58;;
33138;SDS011;19501;50.948;5.316;2024-01-25T11:30:30;60.45;;;17.60;;
33138;SDS011;19501;50.948;5.316;2024-01-25T11:32:58;69.25;;;17.77;;
33138;SDS011;19501;50.948;5.316;2024-01-25T11:35:24;53.22;;;16.40;;
33138;SDS011;19501;50.948;5.316;2024-01-25T11:37:50;61.53;;;15.90;;
33138;SDS011;19501;50.948;5.316;2024-01-25T11:40:19;67.68;;;16.38;;
33138;SDS011;19501;50.948;5.316;2024-01-25T11:42:47;54.00;;;15.55;;
33138;SDS011;19501;50.948;5.316;2024-01-25T11:45:14;54.70;;;15.80;;
33138;SDS011;19501;50.948;5.316;2024-01-25T11:47:40;53.35;;;14.38;;
33138;SDS011;19501;50.948;5.316;2024-01-25T11:50:08;63.92;;;17.27;;
33138;SDS011;19501;50.948;5.316;2024-01-25T11:52:35;57.08;;;16.23;;
33138;SDS011;19501;50.948;5.316;2024-01-25T11:55:04;49.15;;;14.82;;
33138;SDS011;19501;50.948;5.316;2024-01-25T11:57:32;46.97;;;14.48;;
33138;SDS011;19501;50.948;5.316;2024-01-25T12:00:01;64.18;;;16.00;;
33138;SDS011;19501;50.948;5.316;2024-01-25T12:02:29;50.08;;;14.80;;
33138;SDS011;19501;50.948;5.316;2024-01-25T12:04:56;58.35;;;14.68;;
33138;SDS011;19501;50.948;5.316;2024-01-25T12:07:22;56.95;;;15.27;;
33138;SDS011;19501;50.948;5.316;2024-01-25T12:09:58;57.60;;;14.52;;
33138;SDS011;19501;50.948;5.316;2024-01-25T12:12:28;63.65;;;15.35;;
33138;SDS011;19501;50.948;5.316;2024-01-25T12:15:04;53.58;;;13.00;;
33138;SDS011;19501;50.948;5.316;2024-01-25T12:17:30;43.40;;;13.20;;
33138;SDS011;19501;50.948;5.316;2024-01-25T12:19:57;52.65;;;14.07;;
33138;SDS011;19501;50.948;5.316;2024-01-25T12:22:27;51.92;;;11.27;;
33138;SDS011;19501;50.948;5.316;2024-01-25T12:24:54;49.47;;;12.43;;
33138;SDS011;19501;50.948;5.316;2024-01-25T12:27:25;48.65;;;12.27;;
33138;SDS011;19501;50.948;5.316;2024-01-25T12:29:52;47.75;;;12.73;;
33138;SDS011;19501;50.948;5.316;2024-01-25T12:32:21;50.63;;;12.48;;
33138;SDS011;19501;50.948;5.316;2024-01-25T12:34:56;45.63;;;11.63;;
33138;SDS011;19501;50.948;5.316;2024-01-25T12:37:23;54.80;;;12.68;;
33138;SDS011;19501;50.948;5.316;2024-01-25T12:39:52;49.38;;;10.48;;
33138;SDS011;19501;50.948;5.316;2024-01-25T12:42:22;44.72;;;10.77;;
33138;SDS011;19501;50.948;5.316;2024-01-25T12:44:48;37.20;;;9.75;;
33138;SDS011;19501;50.948;5.316;2024-01-25T12:47:17;40.08;;;9.48;;
33138;SDS011;19501;50.948;5.316;2024-01-25T12:49:43;44.83;;;9.95;;
33138;SDS011;19501;50.948;5.316;2024-01-25T12:52:10;48.55;;;11.50;;
33138;SDS011;19501;50.948;5.316;2024-01-25T12:54:40;49.70;;;9.73;;
33138;SDS011;19501;50.948;5.316;2024-01-25T12:57:06;43.30;;;9.55;;
33138;SDS011;19501;50.948;5.316;2024-01-25T12:59:32;40.72;;;8.85;;
33138;SDS011;19501;50.948;5.316;2024-01-25T13:02:01;42.80;;;10.20;;
33138;SDS011;19501;50.948;5.316;2024-01-25T13:04:27;46.95;;;9.57;;
33138;SDS011;19501;50.948;5.316;2024-01-25T13:06:53;40.55;;;8.82;;
33138;SDS011;19501;50.948;5.316;2024-01-25T13:09:21;40.92;;;10.10;;
33138;SDS011;19501;50.948;5.316;2024-01-25T13:11:47;40.53;;;8.73;;
33138;SDS011;19501;50.948;5.316;2024-01-25T13:14:13;48.58;;;8.80;;
33138;SDS011;19501;50.948;5.316;2024-01-25T13:16:39;43.53;;;8.88;;
33138;SDS011;19501;50.948;5.316;2024-01-25T13:19:04;42.45;;;8.32;;
33138;SDS011;19501;50.948;5.316;2024-01-25T13:21:31;45.95;;;10.30;;
33138;SDS011;19501;50.948;5.316;2024-01-25T13:23:59;53.78;;;8.52;;
33138;SDS011;19501;50.948;5.316;2024-01-25T13:26:25;51.28;;;8.25;;
33138;SDS011;19501;50.948;5.316;2024-01-25T13:28:51;38.85;;;8.88;;
33138;SDS011;19501;50.948;5.316;2024-01-25T13:31:17;43.65;;;9.23;;
33138;SDS011;19501;50.948;5.316;2024-01-25T13:33:43;43.55;;;9.88;;
33138;SDS011;19501;50.948;5.316;2024-01-25T13:36:08;41.92;;;8.27;;
33138;SDS011;19501;50.948;5.316;2024-01-25T13:38:36;39.25;;;8.85;;
33138;SDS011;19501;50.948;5.316;2024-01-25T13:41:01;43.45;;;9.52;;
33138;SDS011;19501;50.948;5.316;2024-01-25T13:43:27;43.67;;;9.13;;
33138;SDS011;19501;50.948;5.316;2024-01-25T13:45:53;38.85;;;8.63;;
33138;SDS011;19501;50.948;5.316;2024-01-25T13:48:19;30.80;;;7.40;;
33138;SDS011;19501;50.948;5.316;2024-01-25T13:50:45;45.03;;;9.30;;
33138;SDS011;19501;50.948;5.316;2024-01-25T13:53:11;40.25;;;8.52;;
33138;SDS011;19501;50.948;5.316;2024-01-25T13:55:36;34.90;;;7.82;;
33138;SDS011;19501;50.948;5.316;2024-01-25T13:58:02;39.03;;;8.10;;
33138;SDS011;19501;50.948;5.316;2024-01-25T14:00:28;30.40;;;7.80;;
33138;SDS011;19501;50.948;5.316;2024-01-25T14:02:54;37.22;;;8.07;;
33138;SDS011;19501;50.948;5.316;2024-01-25T14:05:19;33.92;;;7.50;;
33138;SDS011;19501;50.948;5.316;2024-01-25T14:07:45;35.33;;;7.22;;
33138;SDS011;19501;50.948;5.316;2024-01-25T14:10:11;29.08;;;7.95;;
33138;SDS011;19501;50.948;5.316;2024-01-25T14:12:38;30.60;;;7.72;;
33138;SDS011;19501;50.948;5.316;2024-01-25T14:15:06;30.10;;;7.85;;
33138;SDS011;19501;50.948;5.316;2024-01-25T14:17:32;26.35;;;7.18;;
33138;SDS011;19501;50.948;5.316;2024-01-25T14:19:59;29.38;;;7.43;;
33138;SDS011;19501;50.948;5.316;2024-01-25T14:22:25;28.58;;;7.22;;
33138;SDS011;19501;50.948;5.316;2024-01-25T14:24:51;26.10;;;6.97;;
33138;SDS011;19501;50.948;5.316;2024-01-25T14:27:16;28.42;;;6.20;;